sensor_id;sensor_type;location;lat;lon;timestamp;P1;durP1;ratioP1;P2;durP2;ratioP2
43706;SDS011;61348;53.392;-6.248;2023-02-12T00:01:06;7.75;;;4.35;;
43706;SDS011;61348;53.392;-6.248;2023-02-12T00:03:35;8.00;;;4.10;;
43706;SDS011;61348;53.392;-6.248;2023-02-12T00:06:03;9.02;;;3.25;;
43706;SDS011;61348;53.392;-6.248;2023-02-12T00:08:30;3.83;;;2.63;;
43706;SDS011;61348;53.392;-6.248;2023-02-12T00:10:57;3.17;;;2.00;;
43706;SDS011;61348;53.392;-6.248;2023-02-12T00:13:24;2.70;;;2.08;;
43706;SDS011;61348;53.392;-6.248;2023-02-12T00:15:51;3.53;;;1.85;;
43706;SDS011;61348;53.392;-6.248;2023-02-12T00:18:18;1.60;;;1.38;;
43706;SDS011;61348;53.392;-6.248;2023-02-12T00:20:45;3.15;;;2.13;;
43706;SDS011;61348;53.392;-6.248;2023-02-12T00:23:11;8.75;;;1.73;;
43706;SDS011;61348;53.392;-6.248;2023-02-12T00:25:41;4.25;;;2.25;;
43706;SDS011;61348;53.392;-6.248;2023-02-12T00:28:08;3.90;;;2.00;;
43706;SDS011;61348;53.392;-6.248;2023-02-12T00:30:35;2.50;;;1.70;;
43706;SDS011;61348;53.392;-6.248;2023-02-12T00:33:02;1.83;;;1.60;;
43706;SDS011;61348;53.392;-6.248;2023-02-12T00:35:29;2.53;;;1.33;;
43706;SDS011;61348;53.392;-6.248;2023-02-12T00:37:55;1.98;;;1.27;;
43706;SDS011;61348;53.392;-6.248;2023-02-12T00:40:22;2.92;;;0.90;;
43706;SDS011;61348;53.392;-6.248;2023-02-12T00:42:49;2.28;;;1.08;;
43706;SDS011;61348;53.392;-6.248;2023-02-12T00:45:16;1.92;;;1.00;;
43706;SDS011;61348;53.392;-6.248;2023-02-12T00:47:43;2.92;;;1.10;;
43706;SDS011;61348;53.392;-6.248;2023-02-12T00:50:10;2.70;;;1.52;;
43706;SDS011;61348;53.392;-6.248;2023-02-12T00:52:37;1.10;;;0.82;;
43706;SDS011;61348;53.392;-6.248;2023-02-12T00:55:04;2.47;;;1.10;;
43706;SDS011;61348;53.392;-6.248;2023-02-12T00:57:31;2.95;;;0.95;;
43706;SDS011;61348;53.392;-6.248;2023-02-12T00:59:58;2.97;;;1.33;;
43706;SDS011;61348;53.392;-6.248;2023-02-12T01:02:25;2.63;;;1.40;;
43706;SDS011;61348;53.392;-6.248;2023-02-12T01:04:52;2.00;;;0.80;;
43706;SDS011;61348;53.392;-6.248;2023-02-12T01:07:19;2.25;;;1.23;;
43706;SDS011;61348;53.392;-6.248;2023-02-12T01:09:45;1.85;;;0.82;;
43706;SDS011;61348;53.392;-6.248;2023-02-12T01:12:12;1.92;;;1.40;;
43706;SDS011;61348;53.392;-6.248;2023-02-12T01:14:39;5.75;;;1.30;;
43706;SDS011;61348;53.392;-6.248;2023-02-12T01:17:07;2.05;;;1.15;;
43706;SDS011;61348;53.392;-6.248;2023-02-12T01:19:34;3.63;;;1.13;;
43706;SDS011;61348;53.392;-6.248;2023-02-12T01:22:01;1.55;;;1.10;;
43706;SDS011;61348;53.392;-6.248;2023-02-12T01:24:28;1.55;;;0.93;;
43706;SDS011;61348;53.392;-6.248;2023-02-12T01:26:55;5.05;;;0.93;;
43706;SDS011;61348;53.392;-6.248;2023-02-12T01:29:22;1.80;;;1.08;;
43706;SDS011;61348;53.392;-6.248;2023-02-12T01:31:48;2.22;;;1.15;;
43706;SDS011;61348;53.392;-6.248;2023-02-12T01:34:15;1.42;;;1.02;;
43706;SDS011;61348;53.392;-6.248;2023-02-12T01:36:42;2.22;;;1.52;;
43706;SDS011;61348;53.392;-6.248;2023-02-12T01:39:09;3.95;;;1.08;;
43706;SDS011;61348;53.392;-6.248;2023-02-12T01:41:39;2.80;;;1.23;;
43706;SDS011;61348;53.392;-6.248;2023-02-12T01:44:09;4.13;;;1.65;;
43706;SDS011;61348;53.392;-6.248;2023-02-12T01:46:44;1.77;;;1.40;;
43706;SDS011;61348;53.392;-6.248;2023-02-12T01:49:15;2.75;;;1.48;;
43706;SDS011;61348;53.392;-6.248;2023-02-12T01:51:47;1.90;;;1.20;;
43706;SDS011;61348;53.392;-6.248;2023-02-12T01:54:19;3.67;;;1.35;;
43706;SDS011;61348;53.392;-6.248;2023-02-12T01:56:52;3.78;;;1.20;;
43706;SDS011;61348;53.392;-6.248;2023-02-12T01:59:20;2.88;;;1.15;;
43706;SDS011;61348;53.392;-6.248;2023-02-12T02:01:49;1.40;;;1.10;;
43706;SDS011;61348;53.392;-6.248;2023-02-12T02:04:18;4.50;;;1.95;;
43706;SDS011;61348;53.392;-6.248;2023-02-12T02:06:55;4.13;;;2.78;;
43706;SDS011;61348;53.392;-6.248;2023-02-12T02:09:29;5.38;;;1.50;;
43706;SDS011;61348;53.392;-6.248;2023-02-12T02:11:58;1.80;;;1.23;;
43706;SDS011;61348;53.392;-6.248;2023-02-12T02:14:45;4.05;;;2.15;;
43706;SDS011;61348;53.392;-6.248;2023-02-12T02:31:11;1.38;;;0.90;;
43706;SDS011;61348;53.392;-6.248;2023-02-12T02:45:05;2.95;;;1.15;;
43706;SDS011;61348;53.392;-6.248;2023-02-12T02:47:40;3.50;;;1.58;;
43706;SDS011;61348;53.392;-6.248;2023-02-12T02:50:12;2.97;;;1.65;;
43706;SDS011;61348;53.392;-6.248;2023-02-12T02:52:45;4.55;;;1.15;;
43706;SDS011;61348;53.392;-6.248;2023-02-12T02:55:34;1.98;;;1.10;;
43706;SDS011;61348;53.392;-6.248;2023-02-12T02:58:08;1.95;;;0.90;;
43706;SDS011;61348;53.392;-6.248;2023-02-12T03:00:43;4.07;;;1.10;;
43706;SDS011;61348;53.392;-6.248;2023-02-12T03:03:17;1.27;;;0.82;;
43706;SDS011;61348;53.392;-6.248;2023-02-12T03:05:52;2.25;;;0.80;;
43706;SDS011;61348;53.392;-6.248;2023-02-12T03:08:25;2.22;;;1.00;;
43706;SDS011;61348;53.392;-6.248;2023-02-12T03:11:07;2.10;;;1.10;;
43706;SDS011;61348;53.392;-6.248;2023-02-12T03:16:39;3.20;;;0.90;;
43706;SDS011;61348;53.392;-6.248;2023-02-12T03:19:18;1.92;;;1.08;;
43706;SDS011;61348;53.392;-6.248;2023-02-12T03:21:49;2.92;;;1.00;;
43706;SDS011;61348;53.392;-6.248;2023-02-12T03:24:31;7.32;;;1.58;;
43706;SDS011;61348;53.392;-6.248;2023-02-12T03:27:04;3.05;;;1.10;;
43706;SDS011;61348;53.392;-6.248;2023-02-12T03:29:35;1.30;;;0.82;;
43706;SDS011;61348;53.392;-6.248;2023-02-12T03:32:05;5.72;;;1.08;;
43706;SDS011;61348;53.392;-6.248;2023-02-12T03:37:18;1.58;;;0.88;;
43706;SDS011;61348;53.392;-6.248;2023-02-12T03:40:01;2.88;;;0.80;;
43706;SDS011;61348;53.392;-6.248;2023-02-12T03:45:44;3.83;;;0.90;;
43706;SDS011;61348;53.392;-6.248;2023-02-12T03:48:22;1.73;;;0.85;;
43706;SDS011;61348;53.392;-6.248;2023-02-12T03:50:56;3.72;;;1.02;;
43706;SDS011;61348;53.392;-6.248;2023-02-12T03:53:25;1.52;;;0.80;;
43706;SDS011;61348;53.392;-6.248;2023-02-12T03:56:04;1.38;;;0.88;;
43706;SDS011;61348;53.392;-6.248;2023-02-12T03:58:38;3.10;;;1.42;;
43706;SDS011;61348;53.392;-6.248;2023-02-12T04:01:06;2.72;;;0.73;;
43706;SDS011;61348;53.392;-6.248;2023-02-12T04:03:34;2.22;;;1.27;;
43706;SDS011;61348;53.392;-6.248;2023-02-12T04:06:01;5.03;;;1.27;;
43706;SDS011;61348;53.392;-6.248;2023-02-12T04:08:28;6.20;;;0.98;;
43706;SDS011;61348;53.392;-6.248;2023-02-12T04:11:33;1.23;;;0.85;;
43706;SDS011;61348;53.392;-6.248;2023-02-12T04:14:30;1.35;;;0.60;;
43706;SDS011;61348;53.392;-6.248;2023-02-12T04:22:53;4.63;;;0.85;;
43706;SDS011;61348;53.392;-6.248;2023-02-12T04:31:54;1.92;;;0.77;;
43706;SDS011;61348;53.392;-6.248;2023-02-12T04:37:07;0.93;;;0.60;;
43706;SDS011;61348;53.392;-6.248;2023-02-12T04:40:11;1.80;;;0.75;;
43706;SDS011;61348;53.392;-6.248;2023-02-12T04:42:43;2.53;;;0.88;;
43706;SDS011;61348;53.392;-6.248;2023-02-12T04:47:40;2.42;;;0.80;;
43706;SDS011;61348;53.392;-6.248;2023-02-12T04:50:07;1.85;;;0.82;;
43706;SDS011;61348;53.392;-6.248;2023-02-12T04:52:34;2.35;;;0.90;;
43706;SDS011;61348;53.392;-6.248;2023-02-12T04:55:01;2.33;;;1.70;;
43706;SDS011;61348;53.392;-6.248;2023-02-12T04:57:28;4.65;;;1.60;;
43706;SDS011;61348;53.392;-6.248;2023-02-12T04:59:55;2.40;;;0.80;;
43706;SDS011;61348;53.392;-6.248;2023-02-12T05:02:21;2.30;;;0.93;;
43706;SDS011;61348;53.392;-6.248;2023-02-12T05:04:49;2.63;;;1.35;;
43706;SDS011;61348;53.392;-6.248;2023-02-12T05:07:16;4.28;;;1.17;;
43706;SDS011;61348;53.392;-6.248;2023-02-12T05:09:43;2.13;;;1.00;;
43706;SDS011;61348;53.392;-6.248;2023-02-12T05:12:09;2.17;;;1.35;;
43706;SDS011;61348;53.392;-6.248;2023-02-12T05:14:36;2.03;;;0.90;;
43706;SDS011;61348;53.392;-6.248;2023-02-12T05:17:03;1.42;;;0.93;;
43706;SDS011;61348;53.392;-6.248;2023-02-12T05:19:30;1.48;;;1.08;;
43706;SDS011;61348;53.392;-6.248;2023-02-12T05:21:56;1.88;;;1.13;;
43706;SDS011;61348;53.392;-6.248;2023-02-12T05:24:23;0.85;;;0.80;;
43706;SDS011;61348;53.392;-6.248;2023-02-12T05:26:51;3.03;;;1.10;;
43706;SDS011;61348;53.392;-6.248;2023-02-12T05:29:18;3.85;;;1.33;;
43706;SDS011;61348;53.392;-6.248;2023-02-12T05:31:45;2.63;;;1.05;;
43706;SDS011;61348;53.392;-6.248;2023-02-12T05:34:12;0.70;;;0.65;;
43706;SDS011;61348;53.392;-6.248;2023-02-12T05:36:39;4.47;;;1.10;;
43706;SDS011;61348;53.392;-6.248;2023-02-12T05:39:06;2.47;;;0.57;;
43706;SDS011;61348;53.392;-6.248;2023-02-12T05:41:33;2.60;;;0.50;;
43706;SDS011;61348;53.392;-6.248;2023-02-12T05:44:03;1.17;;;0.60;;
43706;SDS011;61348;53.392;-6.248;2023-02-12T05:46:32;5.00;;;1.00;;
43706;SDS011;61348;53.392;-6.248;2023-02-12T05:48:59;1.50;;;0.75;;
43706;SDS011;61348;53.392;-6.248;2023-02-12T05:51:26;1.65;;;1.10;;
43706;SDS011;61348;53.392;-6.248;2023-02-12T05:54:00;1.95;;;0.63;;
43706;SDS011;61348;53.392;-6.248;2023-02-12T05:56:40;1.88;;;0.55;;
43706;SDS011;61348;53.392;-6.248;2023-02-12T05:59:13;2.83;;;0.80;;
43706;SDS011;61348;53.392;-6.248;2023-02-12T06:01:42;2.45;;;0.60;;
43706;SDS011;61348;53.392;-6.248;2023-02-12T06:04:18;0.70;;;0.60;;
43706;SDS011;61348;53.392;-6.248;2023-02-12T06:06:49;0.70;;;0.68;;
43706;SDS011;61348;53.392;-6.248;2023-02-12T06:09:17;5.07;;;0.80;;
43706;SDS011;61348;53.392;-6.248;2023-02-12T06:11:44;1.85;;;0.90;;
43706;SDS011;61348;53.392;-6.248;2023-02-12T06:14:13;1.98;;;1.00;;
43706;SDS011;61348;53.392;-6.248;2023-02-12T06:16:45;1.48;;;0.90;;
43706;SDS011;61348;53.392;-6.248;2023-02-12T06:19:16;2.72;;;0.98;;
43706;SDS011;61348;53.392;-6.248;2023-02-12T06:21:44;2.60;;;0.90;;
43706;SDS011;61348;53.392;-6.248;2023-02-12T06:24:12;1.67;;;1.27;;
43706;SDS011;61348;53.392;-6.248;2023-02-12T06:26:40;2.15;;;1.02;;
43706;SDS011;61348;53.392;-6.248;2023-02-12T06:29:08;1.48;;;1.30;;
43706;SDS011;61348;53.392;-6.248;2023-02-12T06:31:36;1.20;;;0.75;;
43706;SDS011;61348;53.392;-6.248;2023-02-12T06:34:07;1.33;;;1.15;;
43706;SDS011;61348;53.392;-6.248;2023-02-12T06:36:35;1.80;;;0.75;;
43706;SDS011;61348;53.392;-6.248;2023-02-12T06:39:03;2.70;;;1.25;;
43706;SDS011;61348;53.392;-6.248;2023-02-12T06:41:30;0.73;;;0.43;;
43706;SDS011;61348;53.392;-6.248;2023-02-12T06:43:57;3.28;;;0.80;;
43706;SDS011;61348;53.392;-6.248;2023-02-12T06:46:24;2.83;;;0.77;;
43706;SDS011;61348;53.392;-6.248;2023-02-12T06:48:52;3.88;;;0.70;;
43706;SDS011;61348;53.392;-6.248;2023-02-12T06:51:23;1.50;;;1.38;;
43706;SDS011;61348;53.392;-6.248;2023-02-12T06:53:51;3.10;;;0.88;;
43706;SDS011;61348;53.392;-6.248;2023-02-12T06:56:19;5.85;;;1.20;;
43706;SDS011;61348;53.392;-6.248;2023-02-12T06:58:52;1.83;;;1.50;;
43706;SDS011;61348;53.392;-6.248;2023-02-12T07:01:24;2.95;;;0.57;;
43706;SDS011;61348;53.392;-6.248;2023-02-12T07:03:54;1.33;;;0.70;;
43706;SDS011;61348;53.392;-6.248;2023-02-12T07:06:23;1.73;;;0.75;;
43706;SDS011;61348;53.392;-6.248;2023-02-12T07:08:50;1.10;;;0.73;;
43706;SDS011;61348;53.392;-6.248;2023-02-12T07:11:17;5.25;;;1.30;;
43706;SDS011;61348;53.392;-6.248;2023-02-12T07:13:49;0.47;;;0.47;;
43706;SDS011;61348;53.392;-6.248;2023-02-12T07:16:16;3.70;;;0.80;;
43706;SDS011;61348;53.392;-6.248;2023-02-12T07:18:44;2.15;;;0.50;;
43706;SDS011;61348;53.392;-6.248;2023-02-12T07:21:11;3.60;;;0.40;;
43706;SDS011;61348;53.392;-6.248;2023-02-12T07:23:40;1.65;;;0.77;;
43706;SDS011;61348;53.392;-6.248;2023-02-12T07:26:09;2.20;;;1.45;;
43706;SDS011;61348;53.392;-6.248;2023-02-12T07:28:37;1.27;;;0.50;;
43706;SDS011;61348;53.392;-6.248;2023-02-12T07:31:06;2.33;;;0.70;;
43706;SDS011;61348;53.392;-6.248;2023-02-12T07:33:35;2.60;;;0.60;;
43706;SDS011;61348;53.392;-6.248;2023-02-12T07:36:04;2.38;;;0.93;;
43706;SDS011;61348;53.392;-6.248;2023-02-12T07:38:32;6.53;;;1.50;;
43706;SDS011;61348;53.392;-6.248;2023-02-12T07:41:06;0.88;;;0.40;;
43706;SDS011;61348;53.392;-6.248;2023-02-12T07:43:36;0.47;;;0.45;;
43706;SDS011;61348;53.392;-6.248;2023-02-12T07:46:10;3.22;;;0.93;;
43706;SDS011;61348;53.392;-6.248;2023-02-12T07:48:39;1.23;;;0.43;;
43706;SDS011;61348;53.392;-6.248;2023-02-12T07:51:06;0.90;;;0.50;;
43706;SDS011;61348;53.392;-6.248;2023-02-12T07:53:34;2.25;;;0.40;;
43706;SDS011;61348;53.392;-6.248;2023-02-12T07:56:14;1.63;;;0.47;;
43706;SDS011;61348;53.392;-6.248;2023-02-12T07:58:44;0.60;;;0.40;;
43706;SDS011;61348;53.392;-6.248;2023-02-12T08:03:39;1.02;;;0.35;;
43706;SDS011;61348;53.392;-6.248;2023-02-12T08:06:09;2.63;;;0.40;;
43706;SDS011;61348;53.392;-6.248;2023-02-12T08:08:39;2.08;;;0.70;;
43706;SDS011;61348;53.392;-6.248;2023-02-12T08:11:07;7.15;;;2.58;;
43706;SDS011;61348;53.392;-6.248;2023-02-12T08:13:36;3.58;;;3.30;;
43706;SDS011;61348;53.392;-6.248;2023-02-12T08:16:05;3.60;;;3.30;;
43706;SDS011;61348;53.392;-6.248;2023-02-12T08:18:34;0.93;;;0.93;;
43706;SDS011;61348;53.392;-6.248;2023-02-12T08:21:05;1.45;;;0.80;;
43706;SDS011;61348;53.392;-6.248;2023-02-12T08:23:43;2.70;;;0.95;;
43706;SDS011;61348;53.392;-6.248;2023-02-12T08:26:15;1.42;;;0.65;;
43706;SDS011;61348;53.392;-6.248;2023-02-12T08:28:45;1.35;;;1.15;;
43706;SDS011;61348;53.392;-6.248;2023-02-12T08:31:18;5.28;;;0.70;;
43706;SDS011;61348;53.392;-6.248;2023-02-12T08:33:48;3.67;;;0.60;;
43706;SDS011;61348;53.392;-6.248;2023-02-12T08:36:18;4.38;;;1.10;;
43706;SDS011;61348;53.392;-6.248;2023-02-12T08:38:49;5.13;;;0.93;;
43706;SDS011;61348;53.392;-6.248;2023-02-12T08:41:23;1.65;;;0.70;;
43706;SDS011;61348;53.392;-6.248;2023-02-12T08:43:52;0.93;;;0.60;;
43706;SDS011;61348;53.392;-6.248;2023-02-12T08:46:22;4.50;;;0.95;;
43706;SDS011;61348;53.392;-6.248;2023-02-12T08:48:52;5.03;;;0.80;;
43706;SDS011;61348;53.392;-6.248;2023-02-12T08:51:23;3.05;;;1.15;;
43706;SDS011;61348;53.392;-6.248;2023-02-12T08:53:56;2.65;;;0.60;;
43706;SDS011;61348;53.392;-6.248;2023-02-12T08:56:25;2.63;;;0.70;;
43706;SDS011;61348;53.392;-6.248;2023-02-12T08:58:52;3.15;;;0.45;;
43706;SDS011;61348;53.392;-6.248;2023-02-12T09:01:20;1.90;;;0.80;;
43706;SDS011;61348;53.392;-6.248;2023-02-12T09:03:48;4.28;;;0.90;;
43706;SDS011;61348;53.392;-6.248;2023-02-12T09:06:17;19.38;;;3.20;;
43706;SDS011;61348;53.392;-6.248;2023-02-12T09:08:45;5.75;;;2.38;;
43706;SDS011;61348;53.392;-6.248;2023-02-12T09:11:14;1.65;;;0.90;;
43706;SDS011;61348;53.392;-6.248;2023-02-12T09:13:43;3.90;;;1.15;;
43706;SDS011;61348;53.392;-6.248;2023-02-12T09:16:11;1.48;;;0.80;;
43706;SDS011;61348;53.392;-6.248;2023-02-12T09:18:39;5.40;;;2.05;;
43706;SDS011;61348;53.392;-6.248;2023-02-12T09:21:09;7.75;;;2.35;;
43706;SDS011;61348;53.392;-6.248;2023-02-12T09:23:39;5.55;;;2.20;;
43706;SDS011;61348;53.392;-6.248;2023-02-12T09:26:07;9.23;;;1.73;;
43706;SDS011;61348;53.392;-6.248;2023-02-12T09:28:36;5.85;;;1.48;;
43706;SDS011;61348;53.392;-6.248;2023-02-12T09:31:08;2.40;;;1.30;;
43706;SDS011;61348;53.392;-6.248;2023-02-12T09:33:37;3.95;;;1.10;;
43706;SDS011;61348;53.392;-6.248;2023-02-12T09:36:05;3.13;;;1.00;;
43706;SDS011;61348;53.392;-6.248;2023-02-12T09:38:33;6.43;;;1.50;;
43706;SDS011;61348;53.392;-6.248;2023-02-12T09:41:09;3.40;;;1.50;;
43706;SDS011;61348;53.392;-6.248;2023-02-12T09:46:58;4.13;;;1.13;;
43706;SDS011;61348;53.392;-6.248;2023-02-12T09:52:20;3.65;;;1.00;;
43706;SDS011;61348;53.392;-6.248;2023-02-12T09:59:57;5.18;;;2.28;;
43706;SDS011;61348;53.392;-6.248;2023-02-12T10:02:28;3.13;;;1.55;;
43706;SDS011;61348;53.392;-6.248;2023-02-12T10:04:55;3.78;;;1.60;;
43706;SDS011;61348;53.392;-6.248;2023-02-12T10:13:04;6.27;;;1.70;;
43706;SDS011;61348;53.392;-6.248;2023-02-12T10:15:38;5.45;;;1.63;;
43706;SDS011;61348;53.392;-6.248;2023-02-12T10:23:48;9.63;;;1.90;;
43706;SDS011;61348;53.392;-6.248;2023-02-12T10:26:39;5.63;;;1.63;;
43706;SDS011;61348;53.392;-6.248;2023-02-12T10:29:19;6.70;;;1.77;;
43706;SDS011;61348;53.392;-6.248;2023-02-12T10:31:52;5.88;;;1.60;;
43706;SDS011;61348;53.392;-6.248;2023-02-12T10:34:36;3.38;;;1.60;;
43706;SDS011;61348;53.392;-6.248;2023-02-12T10:40:23;4.38;;;2.47;;
43706;SDS011;61348;53.392;-6.248;2023-02-12T10:42:58;4.63;;;1.70;;
43706;SDS011;61348;53.392;-6.248;2023-02-12T10:45:31;5.93;;;2.13;;
43706;SDS011;61348;53.392;-6.248;2023-02-12T10:53:12;10.70;;;5.47;;
43706;SDS011;61348;53.392;-6.248;2023-02-12T10:55:47;13.80;;;4.95;;
43706;SDS011;61348;53.392;-6.248;2023-02-12T10:58:18;6.88;;;3.47;;
43706;SDS011;61348;53.392;-6.248;2023-02-12T11:00:54;12.30;;;4.05;;
43706;SDS011;61348;53.392;-6.248;2023-02-12T11:03:29;6.63;;;2.67;;
43706;SDS011;61348;53.392;-6.248;2023-02-12T11:06:13;7.30;;;3.88;;
43706;SDS011;61348;53.392;-6.248;2023-02-12T11:08:42;9.32;;;3.33;;
43706;SDS011;61348;53.392;-6.248;2023-02-12T11:11:15;5.03;;;2.67;;
43706;SDS011;61348;53.392;-6.248;2023-02-12T11:13:46;6.93;;;3.25;;
43706;SDS011;61348;53.392;-6.248;2023-02-12T11:16:29;9.73;;;5.18;;
43706;SDS011;61348;53.392;-6.248;2023-02-12T11:18:59;9.77;;;3.42;;
43706;SDS011;61348;53.392;-6.248;2023-02-12T11:21:43;4.03;;;2.95;;
43706;SDS011;61348;53.392;-6.248;2023-02-12T11:29:37;9.45;;;3.58;;
43706;SDS011;61348;53.392;-6.248;2023-02-12T11:32:06;7.63;;;3.70;;
43706;SDS011;61348;53.392;-6.248;2023-02-12T11:34:34;2.67;;;2.00;;
43706;SDS011;61348;53.392;-6.248;2023-02-12T11:37:01;4.68;;;2.35;;
43706;SDS011;61348;53.392;-6.248;2023-02-12T11:39:34;3.63;;;2.28;;
43706;SDS011;61348;53.392;-6.248;2023-02-12T11:42:05;4.40;;;2.20;;
43706;SDS011;61348;53.392;-6.248;2023-02-12T11:44:42;5.68;;;2.53;;
43706;SDS011;61348;53.392;-6.248;2023-02-12T11:49:56;6.53;;;3.67;;
43706;SDS011;61348;53.392;-6.248;2023-02-12T11:52:31;6.15;;;3.42;;
43706;SDS011;61348;53.392;-6.248;2023-02-12T11:55:05;7.57;;;3.30;;
43706;SDS011;61348;53.392;-6.248;2023-02-12T11:57:48;4.40;;;3.15;;
43706;SDS011;61348;53.392;-6.248;2023-02-12T12:05:40;8.75;;;3.05;;
43706;SDS011;61348;53.392;-6.248;2023-02-12T12:08:16;6.80;;;3.25;;
43706;SDS011;61348;53.392;-6.248;2023-02-12T12:11:00;5.38;;;3.25;;
43706;SDS011;61348;53.392;-6.248;2023-02-12T12:13:38;6.13;;;3.70;;
43706;SDS011;61348;53.392;-6.248;2023-02-12T12:16:19;5.35;;;2.90;;
43706;SDS011;61348;53.392;-6.248;2023-02-12T12:19:14;4.80;;;3.65;;
43706;SDS011;61348;53.392;-6.248;2023-02-12T12:24:44;9.10;;;3.30;;
43706;SDS011;61348;53.392;-6.248;2023-02-12T12:30:07;8.48;;;5.10;;
43706;SDS011;61348;53.392;-6.248;2023-02-12T12:32:43;9.10;;;3.75;;
43706;SDS011;61348;53.392;-6.248;2023-02-12T12:35:13;7.15;;;3.72;;
43706;SDS011;61348;53.392;-6.248;2023-02-12T12:37:51;6.88;;;4.10;;
43706;SDS011;61348;53.392;-6.248;2023-02-12T12:45:53;7.85;;;4.18;;
43706;SDS011;61348;53.392;-6.248;2023-02-12T12:48:40;10.15;;;4.25;;
43706;SDS011;61348;53.392;-6.248;2023-02-12T12:53:54;8.93;;;4.32;;
43706;SDS011;61348;53.392;-6.248;2023-02-12T13:05:13;9.85;;;4.78;;
43706;SDS011;61348;53.392;-6.248;2023-02-12T13:10:45;8.82;;;4.30;;
43706;SDS011;61348;53.392;-6.248;2023-02-12T13:29:17;5.87;;;2.70;;
43706;SDS011;61348;53.392;-6.248;2023-02-12T13:31:48;5.88;;;3.63;;
43706;SDS011;61348;53.392;-6.248;2023-02-12T13:34:19;5.63;;;3.88;;
43706;SDS011;61348;53.392;-6.248;2023-02-12T13:36:48;7.75;;;2.97;;
43706;SDS011;61348;53.392;-6.248;2023-02-12T13:39:18;6.35;;;3.53;;
43706;SDS011;61348;53.392;-6.248;2023-02-12T13:47:33;10.20;;;4.38;;
43706;SDS011;61348;53.392;-6.248;2023-02-12T13:52:52;8.18;;;4.25;;
43706;SDS011;61348;53.392;-6.248;2023-02-12T13:55:36;3.17;;;2.20;;
43706;SDS011;61348;53.392;-6.248;2023-02-12T14:01:12;8.00;;;2.53;;
43706;SDS011;61348;53.392;-6.248;2023-02-12T14:06:50;8.55;;;6.13;;
43706;SDS011;61348;53.392;-6.248;2023-02-12T14:09:32;6.93;;;3.75;;
43706;SDS011;61348;53.392;-6.248;2023-02-12T14:12:04;5.72;;;2.67;;
43706;SDS011;61348;53.392;-6.248;2023-02-12T14:14:41;2.50;;;2.00;;
43706;SDS011;61348;53.392;-6.248;2023-02-12T14:22:58;12.25;;;2.80;;
43706;SDS011;61348;53.392;-6.248;2023-02-12T14:25:37;3.92;;;2.03;;
43706;SDS011;61348;53.392;-6.248;2023-02-12T14:28:16;4.97;;;2.38;;
43706;SDS011;61348;53.392;-6.248;2023-02-12T14:33:47;5.00;;;1.90;;
43706;SDS011;61348;53.392;-6.248;2023-02-12T14:39:03;11.47;;;6.23;;
43706;SDS011;61348;53.392;-6.248;2023-02-12T14:41:48;13.18;;;5.40;;
43706;SDS011;61348;53.392;-6.248;2023-02-12T14:44:45;7.05;;;3.72;;
43706;SDS011;61348;53.392;-6.248;2023-02-12T14:50:12;12.05;;;5.25;;
43706;SDS011;61348;53.392;-6.248;2023-02-12T14:52:43;9.90;;;5.00;;
43706;SDS011;61348;53.392;-6.248;2023-02-12T14:55:21;7.55;;;4.88;;
43706;SDS011;61348;53.392;-6.248;2023-02-12T14:58:15;10.85;;;5.18;;
43706;SDS011;61348;53.392;-6.248;2023-02-12T15:00:45;8.38;;;4.05;;
43706;SDS011;61348;53.392;-6.248;2023-02-12T15:03:16;11.30;;;5.45;;
43706;SDS011;61348;53.392;-6.248;2023-02-12T15:08:53;16.20;;;5.47;;
43706;SDS011;61348;53.392;-6.248;2023-02-12T15:17:07;5.90;;;3.03;;
43706;SDS011;61348;53.392;-6.248;2023-02-12T15:22:22;10.70;;;2.30;;
43706;SDS011;61348;53.392;-6.248;2023-02-12T15:27:55;10.70;;;2.75;;
43706;SDS011;61348;53.392;-6.248;2023-02-12T15:30:25;9.32;;;2.47;;
43706;SDS011;61348;53.392;-6.248;2023-02-12T15:32:55;10.15;;;3.65;;
43706;SDS011;61348;53.392;-6.248;2023-02-12T15:35:25;5.93;;;2.65;;
43706;SDS011;61348;53.392;-6.248;2023-02-12T15:37:58;5.72;;;2.00;;
43706;SDS011;61348;53.392;-6.248;2023-02-12T15:40:27;6.00;;;2.50;;
43706;SDS011;61348;53.392;-6.248;2023-02-12T15:45:26;5.38;;;3.05;;
43706;SDS011;61348;53.392;-6.248;2023-02-12T15:50:27;7.05;;;2.60;;
43706;SDS011;61348;53.392;-6.248;2023-02-12T15:52:56;4.38;;;1.70;;
43706;SDS011;61348;53.392;-6.248;2023-02-12T15:55:24;3.13;;;1.48;;
43706;SDS011;61348;53.392;-6.248;2023-02-12T15:57:54;4.85;;;1.83;;
43706;SDS011;61348;53.392;-6.248;2023-02-12T16:03:23;8.95;;;4.38;;
43706;SDS011;61348;53.392;-6.248;2023-02-12T16:05:53;14.05;;;6.88;;
43706;SDS011;61348;53.392;-6.248;2023-02-12T16:08:23;7.97;;;4.75;;
43706;SDS011;61348;53.392;-6.248;2023-02-12T16:10:53;12.25;;;5.57;;
43706;SDS011;61348;53.392;-6.248;2023-02-12T16:13:30;7.53;;;3.65;;
43706;SDS011;61348;53.392;-6.248;2023-02-12T16:19:01;4.50;;;2.20;;
43706;SDS011;61348;53.392;-6.248;2023-02-12T16:21:33;4.65;;;2.25;;
43706;SDS011;61348;53.392;-6.248;2023-02-12T16:24:03;5.75;;;2.90;;
43706;SDS011;61348;53.392;-6.248;2023-02-12T16:26:31;6.53;;;3.10;;
43706;SDS011;61348;53.392;-6.248;2023-02-12T16:28:58;10.15;;;3.38;;
43706;SDS011;61348;53.392;-6.248;2023-02-12T16:31:25;7.05;;;3.28;;
43706;SDS011;61348;53.392;-6.248;2023-02-12T16:33:54;6.65;;;3.85;;
43706;SDS011;61348;53.392;-6.248;2023-02-12T16:38:51;7.88;;;2.95;;
43706;SDS011;61348;53.392;-6.248;2023-02-12T16:41:21;8.20;;;3.25;;
43706;SDS011;61348;53.392;-6.248;2023-02-12T16:46:26;6.90;;;2.45;;
43706;SDS011;61348;53.392;-6.248;2023-02-12T16:48:57;3.47;;;2.42;;
43706;SDS011;61348;53.392;-6.248;2023-02-12T16:51:27;2.03;;;1.92;;
43706;SDS011;61348;53.392;-6.248;2023-02-12T16:53:55;3.83;;;2.08;;
43706;SDS011;61348;53.392;-6.248;2023-02-12T16:56:35;6.90;;;3.13;;
43706;SDS011;61348;53.392;-6.248;2023-02-12T16:59:04;10.32;;;4.25;;
43706;SDS011;61348;53.392;-6.248;2023-02-12T17:01:32;5.38;;;2.40;;
43706;SDS011;61348;53.392;-6.248;2023-02-12T17:04:03;5.43;;;2.42;;
43706;SDS011;61348;53.392;-6.248;2023-02-12T17:06:34;7.10;;;2.83;;
43706;SDS011;61348;53.392;-6.248;2023-02-12T17:09:00;4.65;;;2.78;;
43706;SDS011;61348;53.392;-6.248;2023-02-12T17:11:27;6.45;;;3.80;;
43706;SDS011;61348;53.392;-6.248;2023-02-12T17:13:54;8.02;;;2.90;;
43706;SDS011;61348;53.392;-6.248;2023-02-12T17:16:22;5.90;;;3.00;;
43706;SDS011;61348;53.392;-6.248;2023-02-12T17:18:58;16.88;;;13.35;;
43706;SDS011;61348;53.392;-6.248;2023-02-12T17:21:26;5.10;;;3.20;;
43706;SDS011;61348;53.392;-6.248;2023-02-12T17:24:22;7.13;;;3.25;;
43706;SDS011;61348;53.392;-6.248;2023-02-12T17:26:52;12.60;;;2.65;;
43706;SDS011;61348;53.392;-6.248;2023-02-12T17:29:19;8.88;;;2.67;;
43706;SDS011;61348;53.392;-6.248;2023-02-12T17:31:48;5.28;;;3.00;;
43706;SDS011;61348;53.392;-6.248;2023-02-12T17:34:19;8.18;;;3.38;;
43706;SDS011;61348;53.392;-6.248;2023-02-12T17:36:46;8.25;;;3.33;;
43706;SDS011;61348;53.392;-6.248;2023-02-12T17:39:14;9.50;;;3.60;;
43706;SDS011;61348;53.392;-6.248;2023-02-12T17:41:42;9.93;;;4.35;;
43706;SDS011;61348;53.392;-6.248;2023-02-12T17:44:09;5.95;;;3.15;;
43706;SDS011;61348;53.392;-6.248;2023-02-12T17:46:38;16.30;;;6.72;;
43706;SDS011;61348;53.392;-6.248;2023-02-12T17:49:05;19.90;;;7.93;;
43706;SDS011;61348;53.392;-6.248;2023-02-12T17:51:32;22.45;;;8.82;;
43706;SDS011;61348;53.392;-6.248;2023-02-12T17:53:59;33.72;;;14.68;;
43706;SDS011;61348;53.392;-6.248;2023-02-12T17:56:25;21.83;;;10.45;;
43706;SDS011;61348;53.392;-6.248;2023-02-12T17:58:53;34.85;;;14.02;;
43706;SDS011;61348;53.392;-6.248;2023-02-12T18:01:20;121.22;;;56.28;;
43706;SDS011;61348;53.392;-6.248;2023-02-12T18:03:48;87.50;;;42.40;;
43706;SDS011;61348;53.392;-6.248;2023-02-12T18:06:26;84.90;;;41.15;;
43706;SDS011;61348;53.392;-6.248;2023-02-12T18:08:55;55.13;;;32.28;;
43706;SDS011;61348;53.392;-6.248;2023-02-12T18:11:23;54.80;;;31.33;;
43706;SDS011;61348;53.392;-6.248;2023-02-12T18:13:51;85.72;;;35.72;;
43706;SDS011;61348;53.392;-6.248;2023-02-12T18:16:19;54.35;;;27.08;;